sim
Sign-in with your pilot id or email,
or register
Callsign
Passwort

Schedule Details

Flight Number: OEC87702
Departure: Frankfurt Airport (EDDF) at 12:00 UTC
Arrival: Fuerteventura Airport (GCFV) at 16:00 UTC
Route: ANEK1A ANEKI Y163 NATOR DCT BALSI UN852 VERSO UL129 LABRO UA6 MOS UA411 FES UM372 AGOVA UH400 MAK UG850 ADM UN869 RUSIK RUSI3B

Weather Information
Getting current METAR information for EDDF 192150Z 02010KT CAVOK 16/04 Q1028 NOSIG
Getting current METAR information for GCFV 192200Z AUTO 36015KT 9999 FEW030 BKN045 18/12 Q1018

Schedule Frequency

Route Map